Latest Weather Observations for Eildon Fire Tower

IDV60801

Issued at 7:05 pm EDT Monday 20 October 2014 (issued every 30 minutes, with the page automatically refreshed every 10 minutes)

About weather observations | Map of weather stations | Latest weather observations for VIC | Other Formats
Station Details ID: 088164 Name: EILDON FIRE TOWER Lat: -37.21 Lon: 145.84 Height: 637.0 m
Data from the previous 72 hours. | See also: Recent months at Eildon Fire Tower
Date/Time
EDT
Temp
°C
App
Temp
°C
Dew
Point
Rel
Hum
%
Delta-T
°C
Wind Press
QNH
hPa
Press
MSL
hPa
Rain
since 9 am
mm
Dir
 
Spd
km/h
Gust
km/h
Spd
kts
Gust
kts
20/07:00pm 18.5 17.8 8.7 53 5.3 SW 2 7 1 4 - - 0.0
20/06:30pm 18.5 15.9 9.3 55 5.0 W 13 19 7 10 - - 0.0
20/06:00pm 19.4 15.7 9.6 53 5.4 WSW 19 22 10 12 - - 0.0
20/05:30pm 19.6 15.6 8.9 50 5.8 W 20 26 11 14 - - 0.0
20/05:00pm 20.3 17.1 8.6 47 6.3 WSW 15 22 8 12 - - 0.0
20/04:30pm 20.8 18.8 10.3 51 5.9 SW 11 15 6 8 - - 0.0
20/04:00pm 20.7 18.9 9.3 48 6.3 SW 9 15 5 8 - - 0.0
20/03:30pm 20.9 19.1 7.9 43 7.0 S 7 13 4 7 - - 0.0
20/03:00pm 21.5 19.5 7.3 40 7.5 S 7 11 4 6 - - 0.0
20/02:30pm 21.4 19.5 6.5 38 7.8 SSE 6 11 3 6 - - 0.0
20/02:00pm 20.6 18.8 7.9 44 6.8 ESE 7 15 4 8 - - 0.0
20/01:30pm 20.3 18.5 7.3 43 6.9 SE 6 15 3 8 - - 0.0
20/01:00pm 18.9 16.6 5.7 42 6.7 SSE 7 15 4 8 - - 0.0
20/12:30pm 18.9 17.0 7.7 48 5.9 SSE 7 15 4 8 - - 0.0
20/12:00pm 18.4 15.5 6.3 45 6.2 E 11 17 6 9 - - 0.0
20/11:30am 16.8 13.0 6.0 49 5.4 ESE 15 22 8 12 - - 0.0
20/11:00am 16.0 12.1 5.3 49 5.3 ESE 15 24 8 13 - - 0.0
20/10:30am 14.9 11.1 6.0 55 4.4 SE 15 24 8 13 - - 0.0
20/10:00am 13.6 9.3 5.3 57 4.0 ESE 17 26 9 14 - - 0.0
20/09:30am 12.9 8.2 5.3 60 3.7 ESE 19 32 10 17 - - 0.0
20/09:00am 11.6 6.2 4.6 62 3.3 ESE 22 35 12 19 - - 0.0
20/08:30am 10.8 4.7 4.7 66 2.9 ESE 26 43 14 23 - - 0.0
20/08:00am 10.0 4.1 4.0 66 2.7 SE 24 37 13 20 - - 0.0
20/07:30am 9.3 3.4 4.1 70 2.4 SE 24 35 13 19 - - 0.0
20/07:00am 8.6 1.1 3.6 71 2.2 SE 32 43 17 23 - - 0.0
20/06:30am 8.2 0.8 4.2 76 1.8 SE 32 48 17 26 - - 0.0
20/06:11am 8.2 1.3 4.6 78 1.6 SE 30 52 16 28 - - 0.0
20/06:00am 8.2 1.4 5.0 80 1.5 SE 30 44 16 24 - - 0.0
20/05:30am 8.4 4.5 5.5 82 1.4 SE 15 35 8 19 - - 0.0
20/05:00am 8.7 4.2 6.2 84 1.2 SE 19 28 10 15 - - 0.0
20/04:30am 8.6 5.3 6.4 86 1.1 SSE 13 19 7 10 - - 0.0
20/04:00am 8.5 6.5 7.0 90 0.7 S 7 11 4 6 - - 0.0
20/03:30am 8.8 7.6 8.0 95 0.4 S 4 7 2 4 - - 0.0
20/03:00am 9.2 8.0 8.1 93 0.5 W 4 6 2 3 - - 0.0
20/02:30am 9.4 7.2 8.0 91 0.7 WSW 9 13 5 7 - - 0.0
20/02:00am 9.9 7.7 8.0 88 1.0 SSE 9 15 5 8 - - 0.0
20/01:30am 10.3 7.1 8.4 88 1.0 E 15 22 8 12 - - 0.0
20/01:00am 9.7 7.7 8.5 92 0.6 WSW 9 15 5 8 - - 0.0
20/12:30am 9.8 6.2 8.4 91 0.7 W 17 20 9 11 - - 0.0
20/12:00am 10.1 6.1 9.0 93 0.6 W 20 26 11 14 - - 0.0
 
Date/Time
EDT
Temp
°C
App
Temp
°C
Dew
Point
Rel
Hum
%
Delta-T
°C
Wind Press
QNH
hPa
Press
MSL
hPa
Rain
since 9 am
mm
Dir
 
Spd
km/h
Gust
km/h
Spd
kts
Gust
kts
19/11:30pm 11.6 10.4 10.2 91 0.7 S 7 15 4 8 - - 0.0
19/11:00pm 11.0 5.3 9.8 92 0.6 WSW 30 44 16 24 - - 0.0
19/10:30pm 11.1 3.7 9.9 92 0.6 WSW 39 50 21 27 - - 0.0
19/10:00pm 11.6 3.5 10.2 91 0.7 W 43 52 23 28 - - 0.0
19/09:30pm 12.1 6.8 10.0 87 1.1 W 28 37 15 20 - - 0.0
19/09:00pm 13.1 7.4 9.9 81 1.7 WSW 30 33 16 18 - - 0.0
19/08:30pm 15.1 10.5 9.7 70 2.9 WSW 24 35 13 19 - - 0.0
19/08:13pm 17.2 11.6 8.6 57 4.6 W 28 32 15 17 - - 0.0
19/08:00pm 18.6 16.9 8.3 51 5.5 WSW 7 9 4 5 - - 0.0
19/07:30pm 19.0 16.5 8.1 49 5.8 NE 11 17 6 9 - - 0.0
19/07:00pm 19.6 16.0 8.3 48 6.0 NE 17 24 9 13 - - 0.0
19/06:30pm 19.9 16.1 8.9 49 6.0 NE 19 24 10 13 - - 0.0
19/06:00pm 20.3 16.4 8.6 47 6.3 NE 19 24 10 13 - - 0.0
19/05:30pm 20.2 17.4 8.5 47 6.3 NNE 13 22 7 12 - - 0.0
19/05:00pm 20.7 18.0 7.3 42 7.1 NNE 11 19 6 10 - - 0.0
19/04:30pm 21.9 19.8 8.4 42 7.3 NNE 9 19 5 10 - - 0.0
19/04:00pm 23.6 21.6 7.3 35 8.8 NNE 7 15 4 8 - - 0.0
19/03:30pm 23.7 21.7 6.9 34 9.0 NNE 7 13 4 7 - - 0.0
19/03:00pm 21.9 19.4 6.6 37 8.0 N 9 15 5 8 - - 0.0
19/02:30pm 22.5 20.1 7.1 37 8.2 NNE 9 20 5 11 - - 0.0
19/02:00pm 22.7 19.8 8.0 39 8.0 NE 13 20 7 11 - - 0.0
19/01:30pm 21.5 17.6 7.0 39 7.7 NE 17 26 9 14 - - 0.0
19/01:00pm 20.8 16.1 6.0 38 7.6 NE 20 28 11 15 - - 0.0
19/12:30pm 18.7 14.4 6.9 46 6.1 NE 19 26 10 14 - - 0.0
19/12:00pm 17.5 14.0 7.3 51 5.3 NE 15 22 8 12 - - 0.0
19/11:30am 16.4 13.1 6.5 52 5.0 NE 13 20 7 11 - - 0.0
19/11:00am 16.7 14.3 6.8 52 5.1 NE 9 13 5 7 - - 0.0
19/10:30am 17.2 14.2 7.5 53 5.0 NNE 13 22 7 12 - - 0.0
19/10:00am 17.1 13.7 7.7 54 4.9 NNE 15 22 8 12 - - 0.0
19/09:30am 15.5 11.8 6.2 54 4.7 NNE 15 20 8 11 - - 0.0
19/09:00am 15.3 11.4 5.2 51 4.9 NNE 15 22 8 12 - - 0.0
19/08:30am 15.3 11.5 5.8 53 4.7 NNE 15 22 8 12 - - 0.0
19/08:00am 13.8 9.3 5.9 59 3.9 NNE 19 26 10 14 - - 0.0
19/07:30am 13.4 7.8 5.3 58 3.9 NE 24 28 13 15 - - 0.0
19/07:00am 13.5 7.8 4.9 56 4.1 NE 24 26 13 14 - - 0.0
19/06:30am 13.2 8.5 5.1 58 3.9 NE 19 22 10 12 - - 0.0
19/06:00am 13.4 9.1 5.1 57 4.0 NE 17 19 9 10 - - 0.0
19/05:30am 13.5 9.5 4.9 56 4.1 NE 15 19 8 10 - - 0.0
19/05:00am 13.5 9.1 4.6 55 4.2 ENE 17 20 9 11 - - 0.0
19/04:30am 13.7 8.0 4.8 55 4.3 NE 24 26 13 14 - - 0.0
19/04:00am 13.8 8.9 4.9 55 4.3 NE 20 20 11 11 - - 0.0
19/03:30am 13.9 8.7 5.3 56 4.2 NE 22 24 12 13 - - 0.0
19/03:00am 13.9 9.0 5.0 55 4.3 ENE 20 22 11 12 - - 0.0
19/02:30am 13.2 8.6 5.6 60 3.7 ENE 19 22 10 12 - - 0.0
19/02:00am 12.9 8.2 5.3 60 3.7 NNE 19 20 10 11 - - 0.0
19/01:30am 12.9 8.7 5.6 61 3.5 NNE 17 22 9 12 - - 0.0
19/01:00am 13.1 8.9 5.8 61 3.6 NNE 17 22 9 12 - - 0.0
19/12:30am 13.4 9.2 5.6 59 3.8 NE 17 19 9 10 - - 0.0
19/12:00am 13.6 9.5 6.0 60 3.7 NNE 17 20 9 11 - - 0.0
 
Date/Time
EDT
Temp
°C
App
Temp
°C
Dew
Point
Rel
Hum
%
Delta-T
°C
Wind Press
QNH
hPa
Press
MSL
hPa
Rain
since 9 am
mm
Dir
 
Spd
km/h
Gust
km/h
Spd
kts
Gust
kts
18/11:30pm 13.9 10.2 6.3 60 3.8 NNE 15 19 8 10 - - 0.0
18/11:00pm 14.2 10.8 6.1 58 4.0 NNE 13 17 7 9 - - 0.0
18/10:30pm 14.6 11.3 6.4 58 4.1 NNE 13 17 7 9 - - 0.0
18/10:00pm 14.9 12.0 6.5 57 4.2 NNE 11 15 6 8 - - 0.0
18/09:30pm 15.0 12.2 7.1 59 4.0 NNE 11 17 6 9 - - 0.0
18/09:00pm 15.1 12.4 7.2 59 4.0 NNE 11 15 6 8 - - 0.0
18/08:30pm 15.3 12.1 6.8 57 4.3 NNE 13 17 7 9 - - 0.0
18/08:00pm 15.4 12.5 6.7 56 4.4 NE 11 17 6 9 - - 0.0
18/07:30pm 15.9 13.7 6.3 53 4.8 NNE 7 13 4 7 - - 0.0
18/07:00pm 16.7 14.3 6.8 52 5.1 NNE 9 17 5 9 - - 0.0
18/06:30pm 17.1 14.6 6.6 50 5.4 NNE 9 17 5 9 - - 0.0
18/06:00pm 17.2 14.7 6.7 50 5.4 NNE 9 17 5 9 - - 0.0
18/05:30pm 17.8 15.7 6.7 48 5.7 NE 7 13 4 7 - - 0.0
18/05:00pm 18.9 16.1 7.0 46 6.2 NE 11 17 6 9 - - 0.0
18/04:30pm 19.6 18.0 8.0 47 6.2 NNE 6 11 3 6 - - 0.0
18/04:00pm 18.3 15.7 6.2 45 6.2 NE 9 17 5 9 - - 0.0
18/03:30pm 19.6 17.1 6.4 42 6.8 NE 9 22 5 12 - - 0.0
18/03:00pm 19.8 16.6 6.9 43 6.7 ENE 13 19 7 10 - - 0.0
18/02:30pm 19.9 17.2 7.3 44 6.6 NE 11 17 6 9 - - 0.0
18/02:00pm 19.1 16.3 6.9 45 6.3 NE 11 17 6 9 - - 0.0
18/01:30pm 19.4 15.3 6.2 42 6.8 NE 17 24 9 13 - - 0.0
18/01:00pm 18.4 14.8 6.6 46 6.1 NE 15 26 8 14 - - 0.0
18/12:30pm 18.4 15.9 8.1 51 5.5 ENE 11 19 6 10 - - 0.0
18/12:00pm 17.1 14.2 6.6 50 5.4 ENE 11 20 6 11 - - 0.0
18/11:30am 16.4 13.2 6.8 53 4.9 NE 13 19 7 10 - - 0.0
18/11:00am 15.4 13.2 7.9 61 3.9 NNE 9 15 5 8 - - 0.0
18/10:30am 14.6 11.1 7.2 61 3.8 NE 15 20 8 11 - - 0.0
18/10:00am 13.3 9.1 5.9 61 3.6 NE 17 20 9 11 - - 0.0
18/09:30am 12.5 9.4 5.7 63 3.3 NE 11 17 6 9 - - 0.0
18/09:00am 12.3 10.3 7.0 70 2.6 NE 7 13 4 7 - - 0.0
18/08:30am 10.8 8.1 5.6 70 2.5 N 9 13 5 7 - - 0.0
18/08:00am 9.2 6.6 6.1 81 1.5 NE 9 11 5 6 - - 0.0
18/07:30am 9.5 6.7 5.1 74 2.1 NE 9 9 5 5 - - 0.0
18/07:00am 8.2 5.0 5.1 81 1.4 NE 11 11 6 6 - - 0.0
18/06:30am 7.6 4.4 5.1 84 1.2 ENE 11 11 6 6 - - 0.0
18/06:00am 7.6 4.4 4.9 83 1.2 ENE 11 13 6 7 - - 0.0
18/05:30am 8.2 5.6 4.4 77 1.7 E 7 9 4 5 - - 0.0
18/05:00am 8.7 6.3 4.1 73 2.1 NE 6 7 3 4 - - 0.0
18/04:30am 7.5 5.1 5.3 86 1.0 NNE 7 9 4 5 - - 0.0
18/04:00am 7.3 4.6 5.4 88 0.9 NNE 9 11 5 6 - - 0.0
18/03:30am 7.2 3.4 5.7 90 0.7 NNE 15 15 8 8 - - 0.0
18/03:00am 8.0 4.4 4.9 81 1.4 NNE 13 15 7 8 - - 0.0
18/02:30am 8.4 5.5 4.4 76 1.8 NE 9 11 5 6 - - 0.0
18/02:00am 9.9 7.5 4.3 68 2.6 NE 6 7 3 4 - - 0.0
18/01:30am 9.9 8.6 3.9 66 2.7 CALM 0 0 0 0 - - 0.0
18/01:00am 9.9 8.6 4.1 67 2.7 CALM 0 0 0 0 - - 0.0
18/12:30am 10.5 9.1 3.8 63 3.1 CALM 0 0 0 0 - - 0.0
18/12:00am 11.1 9.3 3.6 60 3.4 WSW 2 2 1 1 - - 0.0
 
Date/Time
EDT
Temp
°C
App
Temp
°C
Dew
Point
Rel
Hum
%
Delta-T
°C
Wind Press
QNH
hPa
Press
MSL
hPa
Rain
since 9 am
mm
Dir
 
Spd
km/h
Gust
km/h
Spd
kts
Gust
kts
17/11:30pm 10.5 8.8 4.2 65 2.9 SSW 2 4 1 2 - - 0.0
17/11:00pm 9.5 6.4 5.5 76 1.9 W 11 13 6 7 - - 0.0
17/10:30pm 11.0 8.0 4.0 62 3.2 WSW 9 11 5 6 - - 0.0
17/10:00pm 11.6 8.4 5.3 65 3.0 SW 11 13 6 7 - - 0.0
17/09:30pm 11.8 8.8 2.0 51 4.4 WSW 7 9 4 5 - - 0.0
17/09:00pm 11.9 7.7 1.5 49 4.6 W 13 15 7 8 - - 0.0
17/08:30pm 12.3 8.0 1.0 46 4.9 W 13 13 7 7 - - 0.0
17/08:00pm 12.6 8.6 0.4 43 5.3 W 11 13 6 7 - - 0.0
17/07:30pm 13.2 9.5 2.1 47 5.0 W 11 13 6 7 - - 0.0

Other Formats:

Comma delimited format used in spreadsheet applications
http://www.bom.gov.au/fwo/IDV60801/IDV60801.94881.axf

JavaScript Object Notation format (JSON) in row-major order
http://www.bom.gov.au/fwo/IDV60801/IDV60801.94881.json